Time;durP1;ratioP1;P1;durP2;ratioP2;P2;SDS_P1;SDS_P2;PMS_P1;PMS_P2;Temp;Humidity;BMP_temperature;BMP_pressure;BME280_temperature;BME280_humidity;BME280_pressure;Samples;Min_cycle;Max_cycle;Signal;HPM_P1;HPM_P2
2023/10/06 00:00:19;;;;;;;6.63;3.42;;;;;;;12.94;100.00;102503.06;5090758;28;20046;-36
2023/10/06 00:02:45;;;;;;;6.28;3.17;;;;;;;12.89;100.00;102502.84;5089938;28;20465;-36
2023/10/06 00:05:13;;;;;;;7.30;3.38;;;;;;;12.91;100.00;102508.06;5089597;28;20025;-36
2023/10/06 00:07:40;;;;;;;7.68;3.20;;;;;;;12.89;100.00;102505.56;5090109;28;20028;-36
2023/10/06 00:10:13;;;;;;;5.70;3.35;;;;;;;12.88;100.00;102499.31;5076165;28;20487;-36
2023/10/06 00:12:39;;;;;;;8.25;3.50;;;;;;;12.89;100.00;102506.41;5076498;28;20020;-36
2023/10/06 00:15:08;;;;;;;7.07;3.38;;;;;;;12.84;100.00;102497.19;5076707;28;20443;-36
2023/10/06 00:17:35;;;;;;;6.00;3.13;;;;;;;12.80;100.00;102507.63;5076083;28;20032;-36
2023/10/06 00:20:00;;;;;;;7.28;3.97;;;;;;;12.76;100.00;102500.94;5076636;28;20052;-36
2023/10/06 00:22:26;;;;;;;7.63;3.17;;;;;;;12.83;100.00;102506.38;5076443;28;20071;-36
2023/10/06 00:24:55;;;;;;;;;;;;;;;12.87;100.00;102502.19;5076721;28;20032;-36
2023/10/06 00:27:29;;;;;;;7.63;3.83;;;;;;;12.76;100.00;102503.66;5076842;28;19908;-36
2023/10/06 00:29:55;;;;;;;8.30;3.42;;;;;;;12.72;100.00;102496.13;5076797;28;20032;-36
2023/10/06 00:32:22;;;;;;;8.77;3.60;;;;;;;12.66;100.00;102497.78;5075675;28;20032;-36
2023/10/06 00:34:54;;;;;;;5.43;3.22;;;;;;;12.71;100.00;102503.44;5076102;28;20086;-36
2023/10/06 00:37:23;;;;;;;7.45;4.15;;;;;;;12.63;100.00;102501.72;5076250;28;20407;-36
2023/10/06 00:39:55;;;;;;;6.32;3.08;;;;;;;12.65;100.00;102493.41;5076353;28;20060;-36
2023/10/06 00:42:22;;;;;;;7.38;3.33;;;;;;;12.61;100.00;102482.09;5107405;28;20029;-36
2023/10/06 00:44:48;;;;;;;7.47;3.53;;;;;;;12.63;100.00;102499.00;5075289;28;20490;-36
2023/10/06 00:47:14;;;;;;;7.10;3.60;;;;;;;12.63;100.00;102499.00;5075664;28;20028;-36
2023/10/06 00:49:43;;;;;;;6.57;3.38;;;;;;;12.71;100.00;102500.72;5075539;28;20518;-36
2023/10/06 00:52:11;;;;;;;8.57;3.60;;;;;;;12.63;100.00;102493.56;5076055;28;20445;-36
2023/10/06 00:54:40;;;;;;;8.52;3.67;;;;;;;12.65;100.00;102495.28;5075191;28;20029;-36
2023/10/06 00:57:11;;;;;;;6.68;3.28;;;;;;;12.67;100.00;102494.00;5075788;28;20052;-36
2023/10/06 00:59:37;;;;;;;7.68;3.50;;;;;;;12.66;100.00;102486.09;5075957;28;20107;-36
2023/10/06 01:02:08;;;;;;;8.25;3.70;;;;;;;12.68;100.00;102486.69;5075329;28;20055;-36
2023/10/06 01:04:43;;;;;;;6.53;3.47;;;;;;;12.67;100.00;102487.75;5075582;28;20028;-36
2023/10/06 01:07:12;;;;;;;6.75;3.40;;;;;;;12.53;100.00;102476.84;5075227;28;20086;-36
2023/10/06 01:09:38;;;;;;;5.88;3.45;;;;;;;12.61;100.00;102478.56;5075139;28;20024;-36
2023/10/06 01:12:05;;;;;;;8.73;3.85;;;;;;;12.62;100.00;102481.06;5075755;28;20056;-36
2023/10/06 01:14:37;;;;;;;6.68;3.55;;;;;;;12.58;100.00;102470.81;5074751;28;20020;-36
2023/10/06 01:17:17;;;;;;;9.90;3.30;;;;;;;12.60;100.00;102469.56;5075251;28;20070;-36
2023/10/06 01:19:53;;;;;;;8.98;3.50;;;;;;;12.55;100.00;102468.53;5074308;28;20028;-36
2023/10/06 01:22:41;;;;;;;11.57;3.70;;;;;;;12.57;100.00;102475.41;5074539;28;20035;-36
2023/10/06 01:25:20;;;;;;;9.10;3.60;;;;;;;12.56;100.00;102468.31;5074894;28;20103;-36
2023/10/06 01:27:50;;;;;;;5.40;3.13;;;;;;;12.54;100.00;102462.25;5075351;28;20030;-36
2023/10/06 01:32:45;;;;;;;8.38;3.50;;;;;;;12.55;100.00;102466.66;5074785;28;20044;-36
2023/10/06 01:35:15;;;;;;;8.45;3.50;;;;;;;12.48;100.00;102460.34;5074305;28;20036;-36
2023/10/06 01:37:44;;;;;;;8.52;3.55;;;;;;;12.50;100.00;102461.00;5075103;28;20431;-36
2023/10/06 01:42:54;;;;;;;6.13;3.50;;;;;;;12.46;100.00;102454.31;5075151;28;20458;-36
2023/10/06 01:45:22;;;;;;;8.07;4.15;;;;;;;12.49;100.00;102456.63;5074429;28;20039;-36
2023/10/06 01:48:22;;;;;;;8.88;3.40;;;;;;;12.39;100.00;102437.16;5074115;28;20031;-36
2023/10/06 01:50:44;;;;;;;7.03;3.60;;;;;;;12.38;100.00;102432.78;5073913;28;20036;-36
2023/10/06 01:53:18;;;;;;;10.45;3.58;;;;;;;12.46;100.00;102438.03;5074873;28;20037;-36
2023/10/06 01:55:49;;;;;;;7.35;3.70;;;;;;;12.36;100.00;102424.00;5074215;28;20150;-36
2023/10/06 01:58:14;;;;;;;7.60;4.15;;;;;;;12.38;100.00;102424.63;5074593;28;20093;-36
2023/10/06 02:00:40;;;;;;;8.38;3.80;;;;;;;12.48;100.00;102430.50;5074378;28;20020;-36
2023/10/06 02:03:10;;;;;;;6.50;2.97;;;;;;;12.42;100.00;102434.03;5074167;28;20020;-36
2023/10/06 02:05:38;;;;;;;5.68;2.97;;;;;;;12.46;100.00;102440.72;5073754;28;20075;-37
2023/10/06 02:08:05;;;;;;;6.95;3.22;;;;;;;12.48;100.00;102452.22;5074352;28;20039;-36
2023/10/06 02:10:32;;;;;;;9.55;3.40;;;;;;;12.45;100.00;102451.81;5073958;28;20503;-36
2023/10/06 02:12:58;;;;;;;8.70;3.75;;;;;;;12.39;100.00;102450.72;5073989;28;20039;-36
2023/10/06 02:15:24;;;;;;;10.48;3.83;;;;;;;12.40;100.00;102447.00;5073892;28;20024;-36
2023/10/06 02:17:50;;;;;;;8.38;3.60;;;;;;;12.41;100.00;102455.97;5073511;28;20465;-36
2023/10/06 02:23:00;;;;;;;8.38;3.00;;;;;;;12.37;100.00;102444.66;5074456;28;19908;-36
2023/10/06 02:25:26;;;;;;;7.18;3.30;;;;;;;12.35;100.00;102450.31;5074694;28;20114;-36
2023/10/06 02:27:56;;;;;;;6.75;3.55;;;;;;;12.33;100.00;102449.66;5073805;28;20166;-36
2023/10/06 02:30:33;;;;;;;9.43;3.60;;;;;;;12.31;100.00;102454.47;5073424;28;20028;-36
2023/10/06 02:33:01;;;;;;;6.35;3.45;;;;;;;12.26;100.00;102439.84;5073164;28;20029;-36
2023/10/06 02:35:26;;;;;;;7.72;3.88;;;;;;;12.27;100.00;102444.22;5073934;28;20028;-36
2023/10/06 02:37:52;;;;;;;9.63;4.07;;;;;;;12.29;100.00;102445.69;5074163;28;20082;-36
2023/10/06 02:40:17;;;;;;;8.03;3.80;;;;;;;12.29;100.00;102444.84;5073652;28;20317;-36
2023/10/06 02:42:53;;;;;;;9.47;4.43;;;;;;;12.24;100.00;102452.75;5073981;28;20255;-36
2023/10/06 02:45:21;;;;;;;5.50;3.45;;;;;;;12.25;100.00;102451.72;5074132;28;20317;-36
2023/10/06 02:47:48;;;;;;;10.90;4.22;;;;;;;12.17;100.00;102444.59;5073573;28;20078;-36
2023/10/06 02:50:19;;;;;;;5.18;3.80;;;;;;;12.16;100.00;102439.38;5073470;28;20030;-36
2023/10/06 02:52:46;;;;;;;8.27;3.55;;;;;;;12.20;100.00;102446.06;5074302;28;20116;-36
2023/10/06 02:55:13;;;;;;;7.30;3.45;;;;;;;12.16;100.00;102432.09;5073131;28;20054;-36
2023/10/06 02:57:38;;;;;;;7.15;3.53;;;;;;;12.11;100.00;102426.44;5074165;28;20087;-36
2023/10/06 03:03:06;;;;;;;6.78;3.67;;;;;;;12.04;100.00;102420.97;5073498;28;20040;-36
2023/10/06 03:05:39;;;;;;;10.02;4.05;;;;;;;11.93;100.00;102410.72;5074197;28;20029;-36
2023/10/06 03:08:11;;;;;;;7.60;3.70;;;;;;;11.95;100.00;102422.19;5073318;28;20029;-37
2023/10/06 03:10:44;;;;;;;7.25;3.70;;;;;;;11.96;100.00;102421.16;5074155;28;20051;-34
2023/10/06 03:13:13;;;;;;;6.47;3.42;;;;;;;11.93;100.00;102431.56;5073347;28;20064;-34
2023/10/06 03:15:45;;;;;;;8.88;3.75;;;;;;;11.95;100.00;102432.19;5073192;28;20492;-36
2023/10/06 03:18:15;;;;;;;8.45;3.85;;;;;;;11.87;100.00;102421.53;5073454;28;20067;-35
2023/10/06 03:20:46;;;;;;;10.05;3.90;;;;;;;11.79;100.00;102422.50;5073417;28;20116;-36
2023/10/06 03:23:26;;;;;;;8.40;3.95;;;;;;;11.85;100.00;102427.97;5074004;28;20032;-36
2023/10/06 03:25:56;;;;;;;6.80;3.58;;;;;;;11.90;100.00;102429.25;5074015;28;20082;-36
2023/10/06 03:28:32;;;;;;;6.78;3.63;;;;;;;11.84;100.00;102431.72;5073209;28;20067;-36
2023/10/06 03:31:02;;;;;;;7.57;3.65;;;;;;;11.85;100.00;102427.13;5073140;28;20464;-36
2023/10/06 03:33:29;;;;;;;6.20;3.65;;;;;;;11.83;100.00;102429.22;5073632;28;20385;-36
2023/10/06 03:35:57;;;;;;;7.85;4.03;;;;;;;11.82;100.00;102425.69;5072686;28;20025;-36
2023/10/06 03:46:00;;;;;;;6.65;3.38;;;;;;;11.71;100.00;102415.38;5077365;28;20032;-36
2023/10/06 03:48:29;;;;;;;7.68;3.45;;;;;;;11.69;100.00;102405.75;5077032;28;20112;-36
2023/10/06 03:50:55;;;;;;;8.13;3.72;;;;;;;11.68;100.00;102406.81;5076894;28;20020;-36
2023/10/06 03:53:22;;;;;;;7.88;3.83;;;;;;;11.70;100.00;102407.44;5077406;28;20076;-36
2023/10/06 03:55:48;;;;;;;7.50;3.97;;;;;;;11.68;100.00;102395.97;5076220;28;20028;-36
2023/10/06 03:58:16;;;;;;;7.13;3.67;;;;;;;11.60;100.00;102388.81;5077162;28;20115;-36
2023/10/06 04:00:47;;;;;;;9.10;3.67;;;;;;;11.65;100.00;102401.78;5076154;28;20066;-36
2023/10/06 04:03:14;;;;;;;8.82;4.03;;;;;;;11.59;100.00;102393.41;5076221;28;20049;-36
2023/10/06 04:05:41;;;;;;;6.03;3.30;;;;;;;11.62;100.00;102394.91;5076361;28;20445;-36
2023/10/06 04:08:15;;;;;;;9.13;3.65;;;;;;;11.58;100.00;102390.91;5076350;28;20105;-36
2023/10/06 04:10:42;;;;;;;7.63;3.67;;;;;;;11.60;100.00;102389.66;5077175;28;20024;-36
2023/10/06 04:13:08;;;;;;;7.47;3.50;;;;;;;11.61;100.00;102387.78;5076276;28;20028;-36
2023/10/06 04:15:38;;;;;;;5.38;3.17;;;;;;;11.56;100.00;102380.25;5076273;28;20027;-36
2023/10/06 04:18:10;;;;;;;8.55;4.43;;;;;;;11.55;100.00;102378.59;5076398;28;20082;-36
2023/10/06 04:20:43;;;;;;;6.47;3.28;;;;;;;11.64;100.00;102402.81;5076118;28;20127;-36
2023/10/06 04:23:13;;;;;;;9.82;3.88;;;;;;;11.57;100.00;102411.75;5076105;28;20492;-36
2023/10/06 04:25:40;;;;;;;9.13;3.38;;;;;;;11.50;100.00;102400.03;5075739;28;20074;-36
2023/10/06 04:28:08;;;;;;;5.10;3.20;;;;;;;11.62;100.00;102400.31;5076020;28;20036;-36
2023/10/06 04:30:34;;;;;;;8.00;3.30;;;;;;;11.50;100.00;102386.47;5075846;28;20032;-34
2023/10/06 04:32:59;;;;;;;;;;;;;;;11.64;100.00;102398.22;5076053;28;20108;-35
2023/10/06 04:35:26;;;;;;;7.60;3.80;;;;;;;11.47;100.00;102386.91;5075880;28;20020;-36
2023/10/06 04:37:52;;;;;;;6.60;3.28;;;;;;;11.53;100.00;102391.50;5076319;28;20028;-36
2023/10/06 04:40:19;;;;;;;7.90;3.88;;;;;;;11.50;100.00;102391.91;5075820;28;20419;-36
2023/10/06 04:42:47;;;;;;;7.00;3.20;;;;;;;11.54;100.00;102392.34;5075732;28;20099;-36
2023/10/06 04:45:13;;;;;;;7.50;3.47;;;;;;;11.58;100.00;102394.47;5075645;28;20029;-36
2023/10/06 04:47:42;;;;;;;7.40;3.38;;;;;;;11.52;100.00;102400.69;5075984;28;20432;-36
2023/10/06 04:50:11;;;;;;;10.73;3.35;;;;;;;11.51;100.00;102395.44;5075118;28;20107;-36
2023/10/06 04:52:37;;;;;;;6.30;3.35;;;;;;;11.56;100.00;102399.22;5074989;28;20032;-36
2023/10/06 04:55:11;;;;;;;6.03;3.38;;;;;;;11.58;100.00;102393.63;5075166;28;20035;-36
2023/10/06 04:57:37;;;;;;;6.72;3.20;;;;;;;11.51;100.00;102388.16;5074837;28;20488;-36
2023/10/06 05:00:06;;;;;;;7.75;3.53;;;;;;;11.59;100.00;102395.28;5075329;28;20031;-36
2023/10/06 05:02:34;;;;;;;6.03;3.50;;;;;;;11.62;100.00;102394.06;5076168;28;20083;-36
2023/10/06 05:05:00;;;;;;;8.45;3.33;;;;;;;11.60;100.00;102384.25;5074952;28;20059;-36
2023/10/06 05:07:25;;;;;;;;;;;;;;;11.69;100.00;102384.91;5076002;28;20036;-36
2023/10/06 05:09:52;;;;;;;6.47;2.60;;;;;;;11.66;100.00;102385.31;5075137;28;20416;-36
2023/10/06 05:12:18;;;;;;;5.45;2.95;;;;;;;11.65;100.00;102388.22;5075162;28;20262;-36
2023/10/06 05:14:46;;;;;;;6.93;2.80;;;;;;;11.59;100.00;102373.63;5074703;28;20035;-36
2023/10/06 05:17:16;;;;;;;7.70;3.45;;;;;;;11.63;100.00;102387.59;5074597;28;20020;-36
2023/10/06 05:19:45;;;;;;;6.72;3.00;;;;;;;11.57;100.00;102384.66;5075284;28;20048;-36
2023/10/06 05:22:11;;;;;;;7.32;3.08;;;;;;;11.62;100.00;102375.09;5075522;28;20086;-36
2023/10/06 05:24:37;;;;;;;6.60;3.05;;;;;;;11.54;100.00;102374.22;5074948;28;20024;-36
2023/10/06 05:27:05;;;;;;;6.50;2.97;;;;;;;11.60;100.00;102388.81;5075480;28;20062;-36
2023/10/06 05:29:35;;;;;;;10.15;3.50;;;;;;;11.59;100.00;102387.16;5075048;28;20090;-36
2023/10/06 05:32:02;;;;;;;5.75;3.03;;;;;;;11.54;100.00;102367.97;5075027;28;20025;-36
2023/10/06 05:34:29;;;;;;;6.82;3.08;;;;;;;11.61;100.00;102376.94;5074644;28;20532;-35
2023/10/06 05:36:55;;;;;;;7.90;3.17;;;;;;;11.57;100.00;102375.69;5074851;28;20024;-35
2023/10/06 05:39:20;;;;;;;6.57;2.70;;;;;;;11.59;100.00;102379.88;5074636;28;20067;-35
2023/10/06 05:41:47;;;;;;;7.68;3.00;;;;;;;11.54;100.00;102373.38;5074575;28;20028;-35
2023/10/06 05:44:12;;;;;;;7.53;3.15;;;;;;;11.50;100.00;102363.97;5074533;28;20385;-35
2023/10/06 05:46:37;;;;;;;5.38;2.55;;;;;;;11.55;100.00;102377.75;5074696;28;20035;-35
2023/10/06 05:49:08;;;;;;;6.57;2.90;;;;;;;11.52;100.00;102375.47;5075275;28;20028;-35
2023/10/06 05:51:36;;;;;;;6.53;2.90;;;;;;;11.52;100.00;102386.31;5074336;28;20037;-35
2023/10/06 05:54:02;;;;;;;6.95;3.33;;;;;;;11.48;100.00;102377.72;5074858;28;20028;-35
2023/10/06 05:56:29;;;;;;;5.63;2.83;;;;;;;11.52;100.00;102379.00;5074209;28;20107;-35
2023/10/06 05:58:55;;;;;;;4.85;3.13;;;;;;;11.51;100.00;102380.03;5074898;28;20045;-36
2023/10/06 06:01:21;;;;;;;8.90;3.10;;;;;;;11.41;100.00;102365.16;5074177;28;20513;-36
2023/10/06 06:03:46;;;;;;;4.93;3.22;;;;;;;11.57;100.00;102376.53;5073874;28;20028;-35
2023/10/06 06:06:15;;;;;;;5.82;2.80;;;;;;;11.58;100.00;102372.78;5073625;28;20166;-36
2023/10/06 06:08:43;;;;;;;6.00;2.70;;;;;;;11.53;100.00;102366.28;5074387;28;20044;-36
2023/10/06 06:11:09;;;;;;;8.48;2.88;;;;;;;11.58;100.00;102369.25;5073999;28;20025;-36
2023/10/06 06:13:38;;;;;;;6.63;3.05;;;;;;;11.69;100.00;102378.66;5074012;28;20032;-37
2023/10/06 06:16:05;;;;;;;4.78;2.63;;;;;;;11.76;100.00;102376.81;5074232;28;20081;-36
2023/10/06 06:18:33;;;;;;;5.03;2.83;;;;;;;11.73;100.00;102374.53;5074445;28;20093;-36
2023/10/06 06:21:02;;;;;;;6.13;3.00;;;;;;;11.83;100.00;102380.44;5073836;28;20024;-36
2023/10/06 06:23:28;;;;;;;8.40;2.67;;;;;;;11.79;100.00;102373.72;5074432;28;20108;-36
2023/10/06 06:25:53;;;;;;;;;;;;;;;11.93;100.00;102383.59;5074499;28;20027;-36
2023/10/06 06:28:18;;;;;;;6.57;2.90;;;;;;;11.91;100.00;102382.13;5073841;28;19908;-36
2023/10/06 06:30:47;;;;;;;6.33;2.90;;;;;;;11.89;100.00;102379.63;5073810;28;20375;-36
2023/10/06 06:33:18;;;;;;;8.52;2.97;;;;;;;11.93;100.00;102378.19;5074575;28;20376;-36
2023/10/06 06:35:43;;;;;;;8.32;2.97;;;;;;;11.94;100.00;102385.28;5074264;28;20024;-36
2023/10/06 06:38:12;;;;;;;8.02;2.97;;;;;;;11.96;100.00;102385.91;5073932;28;20442;-36
2023/10/06 06:40:38;;;;;;;8.65;3.15;;;;;;;11.96;100.00;102385.91;5073579;28;20090;-36
2023/10/06 06:43:08;;;;;;;;;;;;;;;12.04;100.00;102382.19;5074361;28;20488;-36
2023/10/06 06:45:41;;;;;;;5.18;2.80;;;;;;;11.93;100.00;102374.63;5073632;28;19915;-36
2023/10/06 06:48:13;;;;;;;9.57;4.00;;;;;;;11.97;100.00;102386.75;5073284;28;20485;-36
2023/10/06 06:50:42;;;;;;;7.75;3.58;;;;;;;11.99;100.00;102380.06;5073572;28;20490;-36
2023/10/06 06:53:07;;;;;;;6.63;3.20;;;;;;;12.01;100.00;102377.19;5073238;28;20586;-36
2023/10/06 06:55:34;;;;;;;4.03;2.95;;;;;;;12.03;100.00;102378.63;5073208;28;20058;-36
2023/10/06 06:58:05;;;;;;;7.47;3.25;;;;;;;12.03;100.00;102381.34;5073695;28;20051;-36
2023/10/06 07:00:31;;;;;;;7.35;3.35;;;;;;;12.00;100.00;102392.59;5074246;28;20024;-36
2023/10/06 07:02:56;;;;;;;6.55;3.03;;;;;;;11.98;100.00;102372.16;5074214;28;20082;-36
2023/10/06 07:05:22;;;;;;;9.32;3.40;;;;;;;12.06;100.00;102388.25;5073025;28;20033;-36
2023/10/06 07:07:51;;;;;;;9.13;3.10;;;;;;;12.04;100.00;102380.28;5073091;28;20044;-36
2023/10/06 07:10:22;;;;;;;7.88;3.17;;;;;;;12.07;100.00;102387.19;5073069;28;20029;-36
2023/10/06 07:12:51;;;;;;;7.00;3.10;;;;;;;12.07;100.00;102382.63;5072990;28;20028;-36
2023/10/06 07:22:31;;;;;;;8.85;4.10;;;;;;;12.16;100.00;102388.69;2343648;27;23912;-36
2023/10/06 07:24:57;;;;;;;7.88;3.13;;;;;;;12.23;100.00;102396.84;5085191;27;1304405;-34
2023/10/06 07:27:23;;;;;;;8.68;3.28;;;;;;;12.30;100.00;102403.13;5132395;28;20412;-35
2023/10/06 07:29:51;;;;;;;;;;;;;;;12.37;100.00;102401.25;5133074;28;20027;-35
2023/10/06 07:32:16;;;;;;;5.32;2.80;;;;;;;12.39;100.00;102396.47;5132624;28;20326;-35
2023/10/06 07:34:42;;;;;;;8.70;3.00;;;;;;;12.38;100.00;102381.22;5131684;28;20036;-35
2023/10/06 07:37:07;;;;;;;6.75;3.25;;;;;;;12.52;100.00;102396.50;5132206;28;20481;-35
2023/10/06 07:39:33;;;;;;;5.88;3.17;;;;;;;12.40;100.00;102362.06;5131600;28;20460;-35
2023/10/06 07:41:58;;;;;;;6.18;2.75;;;;;;;12.71;100.00;102399.44;5131894;28;20390;-35
2023/10/06 07:44:25;;;;;;;8.40;3.17;;;;;;;12.70;100.00;102392.34;5131500;28;20031;-35
2023/10/06 07:46:52;;;;;;;9.20;2.95;;;;;;;12.84;100.00;102411.16;5132040;28;20486;-35
2023/10/06 07:49:17;;;;;;;5.50;3.17;;;;;;;12.92;100.00;102410.09;5131411;28;20059;-35
2023/10/06 07:51:45;;;;;;;6.57;3.67;;;;;;;12.98;100.00;102417.44;5132050;28;20106;-35
2023/10/06 07:54:10;;;;;;;7.43;3.25;;;;;;;13.06;100.00;102419.91;5112994;28;20409;-35
2023/10/06 07:56:36;;;;;;;8.02;3.45;;;;;;;13.16;100.00;102424.94;5131611;28;20065;-35
2023/10/06 07:59:01;;;;;;;8.57;3.20;;;;;;;13.15;100.00;102417.84;5131717;28;20165;-35
2023/10/06 08:01:27;;;;;;;9.23;4.30;;;;;;;13.30;100.00;102432.06;5131141;28;20030;-35
2023/10/06 08:03:53;;;;;;;;;;;;;;;13.40;100.00;102426.19;5131292;28;20035;-35
2023/10/06 08:06:20;;;;;;;7.75;3.47;;;;;;;13.51;100.00;102433.69;5131900;28;19918;-35
2023/10/06 08:08:48;;;;;;;8.18;3.85;;;;;;;13.51;100.00;102417.38;5131526;28;20027;-35
2023/10/06 08:11:13;;;;;;;7.35;3.08;;;;;;;13.65;100.00;102424.47;5131569;28;20023;-35
2023/10/06 08:13:39;;;;;;;9.45;3.28;;;;;;;13.67;100.00;102402.53;5130639;28;20118;-35
2023/10/06 08:16:07;;;;;;;6.15;3.13;;;;;;;13.84;100.00;102411.03;5130644;28;20111;-35
2023/10/06 08:18:32;;;;;;;7.35;3.22;;;;;;;13.89;100.00;102400.34;5130703;28;20077;-35
2023/10/06 08:21:00;;;;;;;8.07;3.45;;;;;;;14.06;100.00;102412.41;5131048;28;20024;-35
2023/10/06 08:23:27;;;;;;;7.47;3.42;;;;;;;14.19;100.00;102397.91;5137750;27;20047;-36
2023/10/06 08:25:56;;;;;;;7.40;3.35;;;;;;;14.31;100.00;102409.78;5151029;27;20513;-35
2023/10/06 08:28:23;;;;;;;8.48;3.00;;;;;;;14.48;100.00;102414.72;5150408;27;20070;-35
2023/10/06 08:30:48;;;;;;;12.00;3.45;;;;;;;14.60;100.00;102402.94;5150618;27;20493;-35
2023/10/06 08:33:14;;;;;;;8.20;3.40;;;;;;;14.63;100.00;102399.75;5137266;27;20115;-35
2023/10/06 08:35:40;;;;;;;;;;;;;;;14.86;100.00;102411.97;5137890;27;20023;-35
2023/10/06 08:38:07;;;;;;;13.02;3.33;;;;;;;14.84;100.00;102405.91;5137046;27;19918;-35
2023/10/06 08:40:36;;;;;;;10.95;3.72;;;;;;;14.90;100.00;102405.03;5137567;27;20028;-35
2023/10/06 08:43:06;;;;;;;7.97;3.20;;;;;;;14.96;100.00;102395.94;5136969;27;20080;-35
2023/10/06 08:45:32;;;;;;;7.13;3.22;;;;;;;14.99;100.00;102406.41;5137530;27;20038;-35
2023/10/06 08:47:59;;;;;;;13.77;4.05;;;;;;;14.99;100.00;102409.13;5137159;27;20023;-35
2023/10/06 08:50:27;;;;;;;10.35;4.15;;;;;;;15.03;100.00;102404.06;5137419;27;20045;-35
2023/10/06 08:52:54;;;;;;;6.63;3.22;;;;;;;15.05;100.00;102415.59;5137358;27;20038;-36
2023/10/06 08:55:21;;;;;;;8.27;3.33;;;;;;;15.12;100.00;102416.34;5137304;27;20038;-37
2023/10/06 08:57:47;;;;;;;7.03;3.05;;;;;;;15.14;100.00;102423.25;5137055;27;20027;-36
2023/10/06 09:00:15;;;;;;;8.18;3.15;;;;;;;15.18;100.00;102418.19;5137508;27;20117;-36
2023/10/06 09:02:51;;;;;;;8.30;3.33;;;;;;;15.22;100.00;102430.28;5136924;27;20019;-36
2023/10/06 09:05:18;;;;;;;7.05;3.10;;;;;;;15.26;100.00;102425.25;5137625;27;20019;-36
2023/10/06 09:08:10;;;;;;;7.07;3.05;;;;;;;15.32;100.00;102422.44;5136540;27;20031;-36
2023/10/06 09:10:42;;;;;;;7.90;3.10;;;;;;;15.40;100.00;102424.06;5137175;27;20107;-36
2023/10/06 09:13:12;;;;;;;5.55;2.67;;;;;;;15.56;100.00;102436.25;5136488;27;20106;-36
2023/10/06 09:15:43;;;;;;;7.72;2.60;;;;;;;15.71;100.00;102417.66;5136557;27;20073;-36
2023/10/06 09:18:20;;;;;;;7.78;3.33;;;;;;;15.85;100.00;102408.28;5136993;27;20107;-36
2023/10/06 09:20:47;;;;;;;9.20;3.10;;;;;;;15.93;100.00;102397.06;5136551;27;20070;-36
2023/10/06 09:23:31;;;;;;;7.20;3.22;;;;;;;16.09;100.00;102395.59;5136179;27;20058;-36
2023/10/06 09:25:57;;;;;;;8.07;2.88;;;;;;;16.11;100.00;102393.47;5136644;27;20023;-36
2023/10/06 09:28:23;;;;;;;12.68;3.80;;;;;;;16.15;100.00;102396.56;5136142;27;20039;-36
2023/10/06 09:31:00;;;;;;;;;;;;;;;16.32;100.00;102388.56;5137386;27;20027;-36
2023/10/06 09:33:28;;;;;;;6.55;2.97;;;;;;;16.34;100.00;102391.91;5137003;27;20071;-36
2023/10/06 09:36:01;;;;;;;8.13;3.13;;;;;;;16.54;100.00;102403.34;5136392;27;20049;-36
2023/10/06 09:38:27;;;;;;;7.32;3.13;;;;;;;16.56;100.00;102387.59;5135867;27;20021;-36
2023/10/06 09:40:52;;;;;;;;;;;;;;;16.68;100.00;102384.88;5137110;27;20026;-36
2023/10/06 09:43:19;;;;;;;5.73;2.33;;;;;;;16.54;100.00;102370.59;5135496;27;20382;-36
2023/10/06 09:45:47;;;;;;;6.32;2.60;;;;;;;16.58;100.00;102390.06;5136627;27;20280;-36
2023/10/06 09:48:18;;;;;;;7.22;2.78;;;;;;;16.58;100.00;102368.22;5136318;27;20031;-36
2023/10/06 09:50:50;;;;;;;6.68;3.30;;;;;;;16.61;100.00;102376.78;5136585;27;20054;-36
2023/10/06 09:53:19;;;;;;;6.72;2.53;;;;;;;16.62;100.00;102372.97;5135867;27;20087;-36
2023/10/06 09:55:49;;;;;;;9.02;3.05;;;;;;;16.62;100.00;102383.91;5134126;27;20474;-36
2023/10/06 09:58:17;;;;;;;5.57;2.40;;;;;;;16.60;100.00;102383.31;5136162;27;20034;-36
2023/10/06 10:00:43;;;;;;;5.78;2.95;;;;;;;16.68;100.00;102384.88;5135818;27;20029;-36
2023/10/06 10:03:12;;;;;;;5.93;2.75;;;;;;;16.77;100.00;102385.41;5132504;27;20051;-36
2023/10/06 10:05:38;;;;;;;5.95;2.30;;;;;;;16.85;100.00;102372.22;5115668;28;20032;-36
2023/10/06 10:08:04;;;;;;;;;;;;;;;17.04;100.00;102372.97;5115511;28;20355;-36
2023/10/06 10:10:30;;;;;;;8.40;2.55;;;;;;;17.13;100.00;102363.34;5115397;28;20278;-36
2023/10/06 10:13:19;;;;;;;7.25;2.20;;;;;;;17.22;100.00;102361.88;5115076;28;20115;-37
2023/10/06 10:15:59;;;;;;;6.85;2.80;;;;;;;17.32;100.00;102363.19;5115509;28;20417;-36
2023/10/06 10:18:35;;;;;;;6.88;2.58;;;;;;;17.25;100.00;102361.41;5115460;28;20019;-36
2023/10/06 10:21:02;;;;;;;7.90;2.83;;;;;;;17.21;100.00;102371.16;5114522;28;20062;-36
2023/10/06 10:23:29;;;;;;;6.82;2.95;;;;;;;17.24;100.00;102364.41;5114759;28;20370;-36
2023/10/06 10:26:12;;;;;;;6.10;2.60;;;;;;;17.36;100.00;102365.22;5115012;28;20171;-36
2023/10/06 10:28:37;;;;;;;6.35;2.58;;;;;;;17.43;100.00;102368.66;5114755;28;20028;-36
2023/10/06 10:31:05;;;;;;;;;;;;;;;17.54;100.00;102363.41;5115482;28;20039;-36
2023/10/06 10:33:37;;;;;;;4.82;2.58;;;;;;;17.49;100.00;102367.69;5114911;28;19915;-36
2023/10/06 10:36:14;;;;;;;5.90;2.25;;;;;;;17.48;100.00;102366.03;5115448;28;20446;-36
2023/10/06 10:39:02;;;;;;;6.97;3.00;;;;;;;17.57;100.00;102366.50;5114489;28;20031;-36
2023/10/06 10:41:34;;;;;;;5.85;2.80;;;;;;;17.57;100.00;102366.50;5114378;28;20555;-36
2023/10/06 10:44:06;;;;;;;8.30;2.55;;;;;;;17.61;100.00;102359.47;5114521;28;20073;-36
2023/10/06 10:46:46;;;;;;;6.03;2.30;;;;;;;17.65;100.00;102351.59;5114730;28;20030;-36
2023/10/06 10:49:13;;;;;;;7.63;2.70;;;;;;;17.73;100.00;102348.53;5114603;28;20053;-36
2023/10/06 10:51:48;;;;;;;5.43;2.28;;;;;;;17.73;100.00;102356.75;5096434;28;20059;-36
2023/10/06 10:54:19;;;;;;;12.68;2.90;;;;;;;17.72;100.00;102361.34;5114275;28;20028;-36
2023/10/06 10:56:49;;;;;;;5.75;2.72;;;;;;;17.72;100.00;102364.09;5114538;28;20024;-36
2023/10/06 10:59:16;;;;;;;8.82;2.95;;;;;;;17.69;100.00;102350.88;5114766;28;20027;-36
2023/10/06 11:01:43;;;;;;;4.90;2.25;;;;;;;17.77;100.00;102337.94;5096478;28;20031;-36
2023/10/06 11:04:12;;;;;;;8.63;2.70;;;;;;;17.95;100.00;102356.88;5113872;28;20110;-36
2023/10/06 11:06:44;;;;;;;5.63;2.50;;;;;;;18.04;100.00;102360.91;5114733;28;20037;-36
2023/10/06 11:09:37;;;;;;;6.88;2.80;;;;;;;18.06;100.00;102375.19;5114455;28;20042;-36
2023/10/06 11:12:05;;;;;;;8.98;3.28;;;;;;;17.90;100.00;102371.31;5113715;28;20031;-36
2023/10/06 11:14:38;;;;;;;6.28;2.90;;;;;;;17.87;100.00;102370.97;5113713;28;20097;-36
2023/10/06 11:17:05;;;;;;;7.10;3.00;;;;;;;17.82;100.00;102373.63;5114876;28;20031;-36
2023/10/06 11:19:32;;;;;;;4.40;2.85;;;;;;;17.72;100.00;102357.78;5113571;28;20032;-36
2023/10/06 11:22:14;;;;;;;7.75;3.10;;;;;;;17.75;100.00;102363.63;5114271;28;20519;-36
2023/10/06 11:24:44;;;;;;;10.80;3.20;;;;;;;17.69;100.00;102350.88;5113530;28;20048;-36
2023/10/06 11:27:14;;;;;;;8.27;3.38;;;;;;;17.64;100.00;102352.69;5114444;28;20110;-36
2023/10/06 11:29:40;;;;;;;6.65;2.70;;;;;;;17.57;100.00;102339.16;5113911;28;20036;-36
2023/10/06 11:32:05;;;;;;;;;;;;;;;17.78;100.00;102339.59;5114892;28;20409;-36
2023/10/06 11:34:32;;;;;;;8.80;3.30;;;;;;;17.70;100.00;102327.09;5113846;28;19915;-36
2023/10/06 11:36:58;;;;;;;7.50;3.35;;;;;;;17.89;100.00;102335.97;5114091;28;20053;-36
2023/10/06 11:39:24;;;;;;;;;;;;;;;18.06;100.00;102347.00;5114178;28;20075;-36
2023/10/06 11:41:51;;;;;;;7.75;3.05;;;;;;;17.96;100.00;102333.94;5114517;28;19912;-36
2023/10/06 11:44:18;;;;;;;6.40;2.90;;;;;;;17.94;100.00;102323.22;5114032;28;20028;-36
2023/10/06 11:46:52;;;;;;;6.72;3.10;;;;;;;18.01;100.00;102318.44;5113793;28;20027;-36
2023/10/06 11:49:20;;;;;;;5.57;2.60;;;;;;;18.05;100.00;102318.75;5114502;28;20123;-36
2023/10/06 11:51:46;;;;;;;6.13;2.65;;;;;;;18.10;100.00;102327.06;5114187;28;20030;-36